createdAt,value
2023-04-20T00:00:23.057Z,1004.64
2023-04-20T00:01:23.126Z,1004.63
2023-04-20T00:02:23.458Z,1004.61
2023-04-20T00:03:23.427Z,1004.60
2023-04-20T00:04:23.389Z,1004.57
2023-04-20T00:05:23.581Z,1004.60
2023-04-20T00:06:23.520Z,1004.51
2023-04-20T00:07:23.601Z,1004.51
2023-04-20T00:08:23.669Z,1004.51
2023-04-20T00:09:23.755Z,1004.53
2023-04-20T00:10:23.844Z,1004.50
2023-04-20T00:11:23.926Z,1004.49
2023-04-20T00:12:23.983Z,1004.47
2023-04-20T00:13:24.048Z,1004.48
2023-04-20T00:14:24.126Z,1004.48
2023-04-20T00:15:24.237Z,1004.43
2023-04-20T00:16:24.339Z,1004.42
2023-04-20T00:17:24.441Z,1004.44
2023-04-20T00:18:24.458Z,1004.43
2023-04-20T00:19:24.543Z,1004.43
2023-04-20T00:20:24.614Z,1004.42
2023-04-20T00:21:24.696Z,1004.41
2023-04-20T00:22:24.763Z,1004.42
2023-04-20T00:23:24.838Z,1004.37
2023-04-20T00:24:24.907Z,1004.33
2023-04-20T00:25:25.006Z,1004.27
2023-04-20T00:26:25.081Z,1004.26
2023-04-20T00:27:25.158Z,1004.19
2023-04-20T00:28:25.230Z,1004.23
2023-04-20T00:29:25.310Z,1004.15
2023-04-20T00:30:25.422Z,1004.18
2023-04-20T00:31:25.617Z,1004.18
2023-04-20T00:32:25.599Z,1004.07
2023-04-20T00:33:25.677Z,1004.03
2023-04-20T00:34:25.762Z,1004.03
2023-04-20T00:35:25.863Z,1004.01
2023-04-20T00:36:25.938Z,1004.02
2023-04-20T00:37:26.024Z,1003.98
2023-04-20T00:38:26.082Z,1003.98
2023-04-20T00:39:26.179Z,1003.93
2023-04-20T00:40:26.274Z,1003.93
2023-04-20T00:41:26.351Z,1003.90
2023-04-20T00:42:26.437Z,1003.92
2023-04-20T00:43:26.523Z,1003.87
2023-04-20T00:44:26.596Z,1003.86
2023-04-20T00:45:26.734Z,1003.86
2023-04-20T00:46:26.808Z,1003.87
2023-04-20T00:47:26.901Z,1003.89
2023-04-20T00:48:26.925Z,1003.88
2023-04-20T00:49:27.015Z,1003.83
2023-04-20T00:50:27.084Z,1003.86
2023-04-20T00:51:27.168Z,1003.82
2023-04-20T00:52:27.257Z,1003.82
2023-04-20T00:53:27.360Z,1003.79
2023-04-20T00:54:27.430Z,1003.72
2023-04-20T00:55:27.554Z,1003.74
2023-04-20T00:56:27.606Z,1003.74
2023-04-20T00:57:27.680Z,1003.67
2023-04-20T00:58:27.752Z,1003.66
2023-04-20T00:59:27.837Z,1003.63
2023-04-20T01:00:27.922Z,1003.62
2023-04-20T01:01:28.011Z,1003.60
2023-04-20T01:02:28.208Z,1003.59
2023-04-20T01:03:28.369Z,1003.59
2023-04-20T01:04:28.311Z,1003.54
2023-04-20T01:05:28.383Z,1003.55
2023-04-20T01:06:28.446Z,1003.57
2023-04-20T01:07:28.543Z,1003.57
2023-04-20T01:08:28.624Z,1003.57
2023-04-20T01:09:28.703Z,1003.56
2023-04-20T01:10:28.815Z,1003.54
2023-04-20T01:11:28.886Z,1003.50
2023-04-20T01:12:28.967Z,1003.46
2023-04-20T01:13:29.032Z,1003.47
2023-04-20T01:14:29.124Z,1003.47
2023-04-20T01:15:29.212Z,1003.47
2023-04-20T01:16:29.337Z,1003.50
2023-04-20T01:17:29.398Z,1003.47
2023-04-20T01:18:29.449Z,1003.46
2023-04-20T01:19:29.512Z,1003.45
2023-04-20T01:20:29.632Z,1003.44
2023-04-20T01:21:29.701Z,1003.39
2023-04-20T01:22:29.773Z,1003.41
2023-04-20T01:23:29.840Z,1003.39
2023-04-20T01:24:29.918Z,1003.37
2023-04-20T01:25:30.195Z,1003.34
2023-04-20T01:26:30.072Z,1003.36
2023-04-20T01:27:30.135Z,1003.37
2023-04-20T01:28:30.245Z,1003.36
2023-04-20T01:29:30.329Z,1003.31
2023-04-20T01:30:30.438Z,1003.33
2023-04-20T01:31:30.536Z,1003.32
2023-04-20T01:32:30.641Z,1003.31
2023-04-20T01:33:30.666Z,1003.29
2023-04-20T01:34:30.745Z,1003.27
2023-04-20T01:35:30.845Z,1003.29
2023-04-20T01:36:30.901Z,1003.25
2023-04-20T01:37:30.971Z,1003.22
2023-04-20T01:38:31.052Z,1003.26
2023-04-20T01:39:31.160Z,1003.24
2023-04-20T01:40:31.236Z,1003.23
2023-04-20T01:41:31.297Z,1003.18
2023-04-20T01:42:31.376Z,1003.15
2023-04-20T01:43:31.449Z,1003.18
2023-04-20T01:44:31.542Z,1003.19
2023-04-20T01:45:31.625Z,1003.22
2023-04-20T01:46:31.719Z,1003.18
2023-04-20T01:47:31.819Z,1003.17
2023-04-20T01:48:31.869Z,1003.19
2023-04-20T01:49:31.934Z,1003.18
2023-04-20T01:50:32.013Z,1003.14
2023-04-20T01:51:32.060Z,1003.16
2023-04-20T01:52:32.159Z,1003.12
2023-04-20T01:53:32.232Z,1003.16
2023-04-20T01:54:32.337Z,1003.17
2023-04-20T01:55:32.404Z,1003.15
2023-04-20T01:56:32.477Z,1003.17
2023-04-20T01:57:32.534Z,1003.13
2023-04-20T01:58:32.634Z,1003.13
2023-04-20T01:59:32.692Z,1003.13
2023-04-20T02:00:32.838Z,1003.10
2023-04-20T02:01:32.873Z,1003.11
2023-04-20T02:02:33.138Z,1003.09
2023-04-20T02:03:33.223Z,1003.13
2023-04-20T02:04:33.130Z,1003.11
2023-04-20T02:05:33.234Z,1003.14
2023-04-20T02:06:33.330Z,1003.14
2023-04-20T02:07:33.365Z,1003.17
2023-04-20T02:08:33.422Z,1003.15
2023-04-20T02:09:33.489Z,1003.14
2023-04-20T02:10:33.618Z,1003.13
2023-04-20T02:11:33.680Z,1003.09
2023-04-20T02:12:33.752Z,1003.14
2023-04-20T02:13:33.822Z,1003.13
2023-04-20T02:14:33.887Z,1003.12
2023-04-20T02:15:33.978Z,1003.11
2023-04-20T02:16:34.079Z,1003.09
2023-04-20T02:17:34.181Z,1003.09
2023-04-20T02:18:34.224Z,1003.06
2023-04-20T02:19:34.306Z,1003.04
2023-04-20T02:20:34.393Z,1003.04
2023-04-20T02:21:34.455Z,1003.04
2023-04-20T02:22:34.530Z,1002.99
2023-04-20T02:23:34.610Z,1002.95
2023-04-20T02:24:34.698Z,1002.92
2023-04-20T02:25:34.816Z,1002.92
2023-04-20T02:26:34.865Z,1002.90
2023-04-20T02:27:34.919Z,1002.92
2023-04-20T02:28:35.002Z,1002.92
2023-04-20T02:29:35.060Z,1002.90
2023-04-20T02:30:35.177Z,1002.90
2023-04-20T02:31:35.294Z,1002.85
2023-04-20T02:32:35.403Z,1002.83
2023-04-20T02:33:35.362Z,1002.82
2023-04-20T02:34:35.448Z,1002.80
2023-04-20T02:35:35.531Z,1002.75
2023-04-20T02:36:35.609Z,1002.80
2023-04-20T02:37:35.674Z,1002.74
2023-04-20T02:38:35.752Z,1002.70
2023-04-20T02:39:35.802Z,1002.76
2023-04-20T02:40:35.934Z,1002.71
2023-04-20T02:41:35.977Z,1002.72
2023-04-20T02:42:36.086Z,1002.67
2023-04-20T02:43:36.147Z,1002.67
2023-04-20T02:44:36.268Z,1002.64
2023-04-20T02:45:36.319Z,1002.61
2023-04-20T02:46:36.411Z,1002.53
2023-04-20T02:47:36.476Z,1002.53
2023-04-20T02:48:36.544Z,1002.53
2023-04-20T02:49:36.664Z,1002.49
2023-04-20T02:50:36.694Z,1002.48
2023-04-20T02:51:36.748Z,1002.45
2023-04-20T02:52:36.814Z,1002.45
2023-04-20T02:53:36.910Z,1002.47
2023-04-20T02:54:36.984Z,1002.49
2023-04-20T02:55:37.101Z,1002.44
2023-04-20T02:56:37.154Z,1002.43
2023-04-20T02:57:37.257Z,1002.43
2023-04-20T02:58:37.316Z,1002.44
2023-04-20T02:59:37.393Z,1002.43
2023-04-20T03:00:37.511Z,1002.40
2023-04-20T03:01:37.597Z,1002.41
2023-04-20T03:02:37.937Z,1002.42
2023-04-20T03:03:37.967Z,1002.39
2023-04-20T03:04:37.845Z,1002.33
2023-04-20T03:05:37.929Z,1002.36
2023-04-20T03:06:38.943Z,1002.37
2023-04-20T03:07:38.084Z,1002.34
2023-04-20T03:08:38.184Z,1002.34
2023-04-20T03:09:38.256Z,1002.37
2023-04-20T03:10:38.318Z,1002.32
2023-04-20T03:11:38.383Z,1002.33
2023-04-20T03:12:38.438Z,1002.32
2023-04-20T03:13:38.528Z,1002.33
2023-04-20T03:14:38.597Z,1002.34
2023-04-20T03:15:38.704Z,1002.34
2023-04-20T03:16:38.795Z,1002.40
2023-04-20T03:17:38.866Z,1002.37
2023-04-20T03:18:38.899Z,1002.38
2023-04-20T03:19:38.994Z,1002.38
2023-04-20T03:20:39.119Z,1002.38
2023-04-20T03:21:39.187Z,1002.44
2023-04-20T03:22:39.260Z,1002.43
2023-04-20T03:23:39.357Z,1002.44
2023-04-20T03:24:39.404Z,1002.46
2023-04-20T03:25:39.523Z,1002.36
2023-04-20T03:26:39.578Z,1002.43
2023-04-20T03:27:39.682Z,1002.44
2023-04-20T03:28:39.750Z,1002.44
2023-04-20T03:29:39.831Z,1002.46
2023-04-20T03:30:39.911Z,1002.38
2023-04-20T03:31:40.028Z,1002.34
2023-04-20T03:32:40.126Z,1002.38
2023-04-20T03:33:40.186Z,1002.36
2023-04-20T03:34:40.254Z,1002.32
2023-04-20T03:35:40.371Z,1002.39
2023-04-20T03:36:40.428Z,1002.36
2023-04-20T03:37:40.508Z,1002.37
2023-04-20T03:38:40.587Z,1002.36
2023-04-20T03:39:40.685Z,1002.38
2023-04-20T03:40:40.780Z,1002.38
2023-04-20T03:41:40.861Z,1002.40
2023-04-20T03:42:40.938Z,1002.37
2023-04-20T03:43:41.043Z,1002.40
2023-04-20T03:44:41.118Z,1002.39
2023-04-20T03:45:41.342Z,1002.37
2023-04-20T03:46:41.285Z,1002.36
2023-04-20T03:47:41.397Z,1002.37
2023-04-20T03:48:41.452Z,1002.32
2023-04-20T03:49:41.547Z,1002.34
2023-04-20T03:50:41.636Z,1002.35
2023-04-20T03:51:41.705Z,1002.33
2023-04-20T03:52:41.773Z,1002.34
2023-04-20T03:53:41.853Z,1002.36
2023-04-20T03:54:41.962Z,1002.37
2023-04-20T03:55:42.041Z,1002.37
2023-04-20T03:56:42.118Z,1002.33
2023-04-20T03:57:42.206Z,1002.32
2023-04-20T03:58:42.295Z,1002.30
2023-04-20T03:59:42.379Z,1002.33
2023-04-20T04:00:42.488Z,1002.36
2023-04-20T04:01:42.562Z,1002.32
2023-04-20T04:02:42.882Z,1002.31
2023-04-20T04:03:42.842Z,1002.30
2023-04-20T04:04:42.832Z,1002.25
2023-04-20T04:05:42.905Z,1002.29
2023-04-20T04:06:42.942Z,1002.25
2023-04-20T04:07:43.046Z,1002.26
2023-04-20T04:08:43.104Z,1002.26
2023-04-20T04:09:43.213Z,1002.22
2023-04-20T04:10:43.300Z,1002.18
2023-04-20T04:11:43.366Z,1002.17
2023-04-20T04:12:43.455Z,1002.20
2023-04-20T04:13:43.531Z,1002.19
2023-04-20T04:14:43.607Z,1002.18
2023-04-20T04:15:43.708Z,1002.21
2023-04-20T04:16:43.830Z,1002.19
2023-04-20T04:17:43.942Z,1002.18
2023-04-20T04:18:43.906Z,1002.12
2023-04-20T04:19:43.993Z,1002.12
2023-04-20T04:20:44.094Z,1002.14
2023-04-20T04:21:44.146Z,1002.17
2023-04-20T04:22:44.216Z,1002.15
2023-04-20T04:23:44.292Z,1002.15
2023-04-20T04:24:44.359Z,1002.08
2023-04-20T04:25:44.462Z,1002.11
2023-04-20T04:26:44.518Z,1002.07
2023-04-20T04:27:44.597Z,1002.06
2023-04-20T04:28:44.685Z,1002.07
2023-04-20T04:29:44.795Z,1002.05
2023-04-20T04:30:44.881Z,1002.06
2023-04-20T04:31:45.061Z,1002.08
2023-04-20T04:32:45.051Z,1002.09
2023-04-20T04:33:45.122Z,1002.03
2023-04-20T04:34:45.193Z,1002.04
2023-04-20T04:35:45.339Z,1002.06
2023-04-20T04:36:45.361Z,1002.10
2023-04-20T04:37:45.448Z,1002.06
2023-04-20T04:38:45.533Z,1002.07
2023-04-20T04:39:45.620Z,1002.09
2023-04-20T04:40:45.766Z,1002.09
2023-04-20T04:41:45.793Z,1002.06
2023-04-20T04:42:45.881Z,1002.12
2023-04-20T04:43:45.981Z,1002.11
2023-04-20T04:44:46.047Z,1002.10
2023-04-20T04:45:46.145Z,1002.11
2023-04-20T04:46:46.207Z,1002.11
2023-04-20T04:47:46.380Z,1002.08
2023-04-20T04:48:46.347Z,1002.09
2023-04-20T04:49:46.446Z,1002.12
2023-04-20T04:50:46.566Z,1002.12
2023-04-20T04:51:46.607Z,1002.08
2023-04-20T04:52:46.657Z,1002.07
2023-04-20T04:53:46.768Z,1002.05
2023-04-20T04:54:46.830Z,1002.06
2023-04-20T04:55:46.929Z,1002.05
2023-04-20T04:56:47.017Z,1002.04
2023-04-20T04:57:47.103Z,1002.05
2023-04-20T04:58:47.134Z,1002.07
2023-04-20T04:59:47.219Z,1002.01
2023-04-20T05:00:47.274Z,1002.04
2023-04-20T05:01:47.360Z,1002.00
2023-04-20T05:02:47.566Z,1002.01
2023-04-20T05:03:47.688Z,1002.00
2023-04-20T05:04:47.552Z,1002.00
2023-04-20T05:05:47.646Z,1001.97
2023-04-20T05:06:47.718Z,1001.98
2023-04-20T05:07:47.816Z,1002.01
2023-04-20T05:08:47.891Z,1002.03
2023-04-20T05:09:47.972Z,1002.01
2023-04-20T05:10:48.053Z,1002.02
2023-04-20T05:11:48.125Z,1002.03
2023-04-20T05:12:48.185Z,1002.00
2023-04-20T05:13:48.277Z,1002.04
2023-04-20T05:14:48.371Z,1002.02
2023-04-20T05:15:48.497Z,1002.01
2023-04-20T05:16:48.517Z,1002.05
2023-04-20T05:17:48.665Z,1002.02
2023-04-20T05:18:48.688Z,1001.97
2023-04-20T05:19:48.790Z,1001.93
2023-04-20T05:20:48.876Z,1001.93
2023-04-20T05:21:48.938Z,1001.91
2023-04-20T05:22:49.032Z,1001.94
2023-04-20T05:23:49.100Z,1001.94
2023-04-20T05:24:49.183Z,1001.99
2023-04-20T05:25:49.263Z,1001.95
2023-04-20T05:26:49.326Z,1001.95
2023-04-20T05:27:49.419Z,1001.96
2023-04-20T05:28:49.499Z,1001.95
2023-04-20T05:29:49.575Z,1001.96
2023-04-20T05:30:49.678Z,1001.99
2023-04-20T05:31:49.789Z,1001.96
2023-04-20T05:32:51.987Z,1001.98
2023-04-20T05:33:49.892Z,1001.99
2023-04-20T05:34:49.991Z,1001.97
2023-04-20T05:35:50.088Z,1001.95
2023-04-20T05:36:50.116Z,1001.99
2023-04-20T05:37:50.192Z,1001.90
2023-04-20T05:38:50.264Z,1001.95
2023-04-20T05:39:50.345Z,1001.93
2023-04-20T05:40:50.766Z,1001.96
2023-04-20T05:41:50.470Z,1001.92
2023-04-20T05:42:50.579Z,1001.95
2023-04-20T05:43:50.639Z,1001.93
2023-04-20T05:44:50.713Z,1001.96
2023-04-20T05:45:50.810Z,1001.92
2023-04-20T05:46:50.877Z,1001.94
2023-04-20T05:47:50.998Z,1001.93
2023-04-20T05:48:51.060Z,1001.94
2023-04-20T05:49:51.110Z,1001.94
2023-04-20T05:50:51.247Z,1001.94
2023-04-20T05:51:51.279Z,1001.93
2023-04-20T05:52:51.371Z,1001.91
2023-04-20T05:53:51.454Z,1001.90
2023-04-20T05:54:51.559Z,1001.89
2023-04-20T05:55:51.628Z,1001.86
2023-04-20T05:56:51.691Z,1001.88
2023-04-20T05:57:52.003Z,1001.86
2023-04-20T05:58:51.882Z,1001.88
2023-04-20T05:59:51.977Z,1001.89
2023-04-20T06:00:52.153Z,1001.90
2023-04-20T06:01:52.122Z,1001.88
2023-04-20T06:02:52.325Z,1001.86
2023-04-20T06:03:52.545Z,1001.88
2023-04-20T06:04:52.553Z,1001.88
2023-04-20T06:05:52.493Z,1001.91
2023-04-20T06:06:52.587Z,1001.89
2023-04-20T06:07:52.619Z,1001.85
2023-04-20T06:08:52.714Z,1001.86
2023-04-20T06:09:52.796Z,1001.82
2023-04-20T06:10:52.919Z,1001.84
2023-04-20T06:11:52.962Z,1001.84
2023-04-20T06:12:53.078Z,1001.85
2023-04-20T06:13:53.142Z,1001.84
2023-04-20T06:14:53.236Z,1001.86
2023-04-20T06:15:53.381Z,1001.79
2023-04-20T06:16:53.408Z,1001.78
2023-04-20T06:17:53.584Z,1001.83
2023-04-20T06:18:53.571Z,1001.78
2023-04-20T06:19:53.669Z,1001.80
2023-04-20T06:20:53.787Z,1001.79
2023-04-20T06:21:53.822Z,1001.72
2023-04-20T06:22:53.914Z,1001.78
2023-04-20T06:23:53.972Z,1001.80
2023-04-20T06:24:54.061Z,1001.80
2023-04-20T06:25:54.147Z,1001.80
2023-04-20T06:26:54.217Z,1001.78
2023-04-20T06:27:54.302Z,1001.79
2023-04-20T06:28:54.414Z,1001.80
2023-04-20T06:29:54.477Z,1001.75
2023-04-20T06:30:54.648Z,1001.78
2023-04-20T06:31:54.704Z,1001.75
2023-04-20T06:32:54.767Z,1001.76
2023-04-20T06:33:54.781Z,1001.77
2023-04-20T06:34:54.850Z,1001.74
2023-04-20T06:35:54.958Z,1001.69
2023-04-20T06:36:55.024Z,1001.71
2023-04-20T06:37:55.100Z,1001.71
2023-04-20T06:38:55.239Z,1001.73
2023-04-20T06:39:55.254Z,1001.71
2023-04-20T06:40:55.358Z,1001.73
2023-04-20T06:41:55.389Z,1001.74
2023-04-20T06:42:55.485Z,1001.72
2023-04-20T06:43:55.544Z,1001.73
2023-04-20T06:44:55.640Z,1001.74
2023-04-20T06:45:55.735Z,1001.73
2023-04-20T06:46:55.849Z,1001.68
2023-04-20T06:47:55.850Z,1001.69
2023-04-20T06:48:55.925Z,1001.68
2023-04-20T06:49:56.004Z,1001.69
2023-04-20T06:50:56.135Z,1001.69
2023-04-20T06:51:56.195Z,1001.71
2023-04-20T06:52:56.270Z,1001.67
2023-04-20T06:53:56.353Z,1001.67
2023-04-20T06:54:56.422Z,1001.69
2023-04-20T06:55:56.501Z,1001.65
2023-04-20T06:56:56.576Z,1001.65
2023-04-20T06:57:56.642Z,1001.67
2023-04-20T06:58:56.725Z,1001.63
2023-04-20T06:59:56.808Z,1001.64
2023-04-20T07:00:56.877Z,1001.62
2023-04-20T07:01:56.992Z,1001.62
2023-04-20T07:02:57.114Z,1001.61
2023-04-20T07:03:57.362Z,1001.59
2023-04-20T07:04:57.206Z,1001.59
2023-04-20T07:05:57.264Z,1001.59
2023-04-20T07:06:57.357Z,1001.59
2023-04-20T07:07:57.415Z,1001.59
2023-04-20T07:08:57.508Z,1001.58
2023-04-20T07:09:57.564Z,1001.53
2023-04-20T07:10:57.686Z,1001.56
2023-04-20T07:11:57.756Z,1001.52
2023-04-20T07:12:57.830Z,1001.55
2023-04-20T07:13:57.906Z,1001.56
2023-04-20T07:14:57.977Z,1001.52
2023-04-20T07:15:58.546Z,1001.55
2023-04-20T07:16:58.106Z,1001.53
2023-04-20T07:17:58.223Z,1001.52
2023-04-20T07:18:58.246Z,1001.55
2023-04-20T07:19:58.306Z,1001.58
2023-04-20T07:20:58.648Z,1001.52
2023-04-20T07:21:58.459Z,1001.49
2023-04-20T07:22:58.556Z,1001.51
2023-04-20T07:23:58.605Z,1001.54
2023-04-20T07:24:58.678Z,1001.55
2023-04-20T07:25:58.902Z,1001.54
2023-04-20T07:26:58.840Z,1001.55
2023-04-20T07:27:58.935Z,1001.56
2023-04-20T07:28:59.027Z,1001.57
2023-04-20T07:29:59.108Z,1001.53
2023-04-20T07:30:59.191Z,1001.55
2023-04-20T07:31:59.361Z,1001.51
2023-04-20T07:32:59.365Z,1001.48
2023-04-20T07:33:59.420Z,1001.42
2023-04-20T07:34:59.524Z,1001.41
2023-04-20T07:35:59.649Z,1001.43
2023-04-20T07:36:59.702Z,1001.45
2023-04-20T07:37:59.777Z,1001.43
2023-04-20T07:38:59.853Z,1001.41
2023-04-20T07:39:59.926Z,1001.42
2023-04-20T07:41:00.057Z,1001.40
2023-04-20T07:42:00.079Z,1001.43
2023-04-20T07:43:00.134Z,1001.41
2023-04-20T07:44:00.192Z,1001.44
2023-04-20T07:45:00.265Z,1001.42
2023-04-20T07:46:00.408Z,1001.42
2023-04-20T07:47:00.955Z,1001.43
2023-04-20T07:48:00.564Z,1001.42
2023-04-20T07:49:00.605Z,1001.41
2023-04-20T07:50:00.674Z,1001.44
2023-04-20T07:51:00.803Z,1001.43
2023-04-20T07:52:12.836Z,1001.43
2023-04-20T07:53:00.958Z,1001.43
2023-04-20T07:54:01.021Z,1001.46
2023-04-20T07:55:01.112Z,1001.44
2023-04-20T07:56:01.191Z,1001.44
2023-04-20T07:57:01.269Z,1001.43
2023-04-20T07:58:01.354Z,1001.44
2023-04-20T07:59:01.422Z,1001.40
2023-04-20T08:00:01.484Z,1001.46
2023-04-20T08:01:01.590Z,1001.44
2023-04-20T08:02:01.806Z,1001.44
2023-04-20T08:03:01.912Z,1001.47
2023-04-20T08:04:02.109Z,1001.46
2023-04-20T08:05:02.171Z,1001.47
2023-04-20T08:06:02.096Z,1001.45
2023-04-20T08:07:02.098Z,1001.40
2023-04-20T08:08:02.190Z,1001.43
2023-04-20T08:09:02.285Z,1001.39
2023-04-20T08:10:02.365Z,1001.41
2023-04-20T08:11:02.445Z,1001.43
2023-04-20T08:12:02.516Z,1001.43
2023-04-20T08:13:02.594Z,1001.44
2023-04-20T08:14:02.636Z,1001.44
2023-04-20T08:15:02.747Z,1001.42
2023-04-20T08:16:02.846Z,1001.44
2023-04-20T08:17:02.904Z,1001.44
2023-04-20T08:18:03.066Z,1001.42
2023-04-20T08:19:03.062Z,1001.42
2023-04-20T08:20:03.140Z,1001.41
2023-04-20T08:21:03.240Z,1001.43
2023-04-20T08:22:03.535Z,1001.41
2023-04-20T08:23:03.392Z,1001.39
2023-04-20T08:24:03.423Z,1001.45
2023-04-20T08:25:03.544Z,1001.40
2023-04-20T08:26:03.660Z,1001.40
2023-04-20T08:27:03.669Z,1001.40
2023-04-20T08:28:04.242Z,1001.39
2023-04-20T08:29:03.866Z,1001.37
2023-04-20T08:30:03.914Z,1001.37
2023-04-20T08:31:04.113Z,1001.40
2023-04-20T08:32:04.112Z,1001.41
2023-04-20T08:33:04.167Z,1001.35
2023-04-20T08:34:04.439Z,1001.32
2023-04-20T08:35:04.278Z,1001.35
2023-04-20T08:36:04.404Z,1001.31
2023-04-20T08:37:04.450Z,1001.29
2023-04-20T08:38:04.552Z,1001.33
2023-04-20T08:39:04.609Z,1001.29
2023-04-20T08:40:04.733Z,1001.29
2023-04-20T08:41:04.789Z,1001.33
2023-04-20T08:42:04.885Z,1001.32
2023-04-20T08:43:04.973Z,1001.32
2023-04-20T08:44:05.028Z,1001.29
2023-04-20T08:45:05.099Z,1001.30
2023-04-20T08:46:05.231Z,1001.30
2023-04-20T08:47:05.288Z,1001.29
2023-04-20T08:48:05.377Z,1001.30
2023-04-20T08:49:05.388Z,1001.31
2023-04-20T08:50:05.469Z,1001.30
2023-04-20T08:51:05.557Z,1001.30
2023-04-20T08:52:05.639Z,1001.32
2023-04-20T08:53:05.672Z,1001.28
2023-04-20T08:54:05.766Z,1001.32
2023-04-20T08:55:05.821Z,1001.28
2023-04-20T08:56:05.941Z,1001.34
2023-04-20T08:57:05.975Z,1001.29
2023-04-20T08:58:06.076Z,1001.33
2023-04-20T08:59:06.149Z,1001.31
2023-04-20T09:00:06.213Z,1001.31
2023-04-20T09:01:06.639Z,1001.34
2023-04-20T09:02:06.431Z,1001.34
2023-04-20T09:03:06.698Z,1001.30
2023-04-20T09:04:06.760Z,1001.32
2023-04-20T09:05:06.648Z,1001.31
2023-04-20T09:06:06.764Z,1001.31
2023-04-20T09:07:06.797Z,1001.32
2023-04-20T09:08:06.866Z,1001.29
2023-04-20T09:09:06.944Z,1001.32
2023-04-20T09:10:07.059Z,1001.30
2023-04-20T09:11:07.185Z,1001.30
2023-04-20T09:12:07.645Z,1001.27
2023-04-20T09:13:07.277Z,1001.28
2023-04-20T09:14:07.370Z,1001.28
2023-04-20T09:15:07.418Z,1001.24
2023-04-20T09:16:07.610Z,1001.24
2023-04-20T09:17:07.591Z,1001.22
2023-04-20T09:18:07.703Z,1001.23
2023-04-20T09:19:09.229Z,1001.18
2023-04-20T09:20:07.845Z,1001.19
2023-04-20T09:21:07.927Z,1001.18
2023-04-20T09:22:07.969Z,1001.15
2023-04-20T09:23:08.063Z,1001.16
2023-04-20T09:24:08.137Z,1001.17
2023-04-20T09:25:08.209Z,1001.10
2023-04-20T09:26:08.299Z,1001.12
2023-04-20T09:27:08.362Z,1001.12
2023-04-20T09:28:08.509Z,1001.10
2023-04-20T09:29:08.557Z,1001.11
2023-04-20T09:30:08.657Z,1001.11
2023-04-20T09:31:08.744Z,1001.10
2023-04-20T09:32:08.862Z,1001.12
2023-04-20T09:33:08.897Z,1001.09
2023-04-20T09:34:08.940Z,1001.05
2023-04-20T09:35:09.020Z,1001.06
2023-04-20T09:36:09.131Z,1001.10
2023-04-20T09:37:09.164Z,1001.12
2023-04-20T09:38:09.251Z,1001.11
2023-04-20T09:39:09.317Z,1001.10
2023-04-20T09:40:09.411Z,1001.12
2023-04-20T09:41:09.509Z,1001.07
2023-04-20T09:42:09.574Z,1001.06
2023-04-20T09:43:09.664Z,1001.07
2023-04-20T09:44:09.741Z,1001.05
2023-04-20T09:45:09.830Z,1001.10
2023-04-20T09:46:09.966Z,1001.07
2023-04-20T09:47:10.005Z,1001.03
2023-04-20T09:48:10.087Z,1001.06
2023-04-20T09:49:10.178Z,1001.08
2023-04-20T09:50:24.652Z,1001.04
2023-04-20T09:51:10.374Z,1001.06
2023-04-20T09:52:10.449Z,1001.04
2023-04-20T09:53:10.523Z,1001.03
2023-04-20T09:54:10.626Z,1001.00
2023-04-20T09:55:10.721Z,1000.99
2023-04-20T09:56:10.796Z,1001.01
2023-04-20T09:57:10.878Z,1000.99
2023-04-20T09:58:10.968Z,1001.00
2023-04-20T09:59:11.045Z,1000.95
2023-04-20T10:00:11.102Z,1000.94
2023-04-20T10:01:11.268Z,1000.94
2023-04-20T10:02:11.424Z,1000.92
2023-04-20T10:03:11.613Z,1000.97
2023-04-20T10:04:11.825Z,1000.95
2023-04-20T10:05:11.556Z,1000.96
2023-04-20T10:06:11.643Z,1000.92
2023-04-20T10:07:11.700Z,1000.93
2023-04-20T10:08:11.753Z,1000.91
2023-04-20T10:09:11.843Z,1001.00
2023-04-20T10:10:11.911Z,1000.95
2023-04-20T10:11:12.029Z,1000.97
2023-04-20T10:12:12.084Z,1000.94
2023-04-20T10:13:12.199Z,1000.93
2023-04-20T10:14:12.258Z,1000.88
2023-04-20T10:15:12.350Z,1000.93
2023-04-20T10:16:12.488Z,1000.96
2023-04-20T10:17:12.729Z,1000.93
2023-04-20T10:18:12.677Z,1000.91
2023-04-20T10:19:12.677Z,1000.89
2023-04-20T10:20:12.769Z,1000.89
2023-04-20T10:21:12.906Z,1000.87
2023-04-20T10:22:12.960Z,1000.89
2023-04-20T10:23:13.041Z,1000.90
2023-04-20T10:24:13.091Z,1000.92
2023-04-20T10:25:13.164Z,1000.89
2023-04-20T10:26:13.268Z,1000.92
2023-04-20T10:27:13.341Z,1000.92
2023-04-20T10:28:13.416Z,1000.90
2023-04-20T10:29:13.493Z,1000.93
2023-04-20T10:30:13.555Z,1000.86
2023-04-20T10:31:13.733Z,1000.85
2023-04-20T10:32:13.700Z,1000.85
2023-04-20T10:33:13.839Z,1000.85
2023-04-20T10:34:13.839Z,1000.89
2023-04-20T10:35:13.927Z,1000.86
2023-04-20T10:36:13.981Z,1000.83
2023-04-20T10:37:14.059Z,1000.89
2023-04-20T10:38:14.160Z,1000.85
2023-04-20T10:39:14.232Z,1000.83
2023-04-20T10:40:14.313Z,1000.90
2023-04-20T10:41:14.398Z,1000.83
2023-04-20T10:42:16.096Z,1000.81
2023-04-20T10:43:14.533Z,1000.78
2023-04-20T10:44:14.641Z,1000.81
2023-04-20T10:45:14.749Z,1000.83
2023-04-20T10:46:14.869Z,1000.83
2023-04-20T10:47:14.875Z,1000.85
2023-04-20T10:48:17.822Z,1000.85
2023-04-20T10:49:15.041Z,1000.82
2023-04-20T10:50:15.146Z,1000.84
2023-04-20T10:51:15.241Z,1000.85
2023-04-20T10:52:15.301Z,1000.86
2023-04-20T10:53:15.365Z,1000.85
2023-04-20T10:54:17.659Z,1000.86
2023-04-20T10:55:15.509Z,1000.86
2023-04-20T10:56:15.606Z,1000.93
2023-04-20T10:57:15.673Z,1000.93
2023-04-20T10:58:15.730Z,1000.90
2023-04-20T10:59:15.951Z,1000.87
2023-04-20T11:00:15.889Z,1000.83
2023-04-20T11:01:16.024Z,1000.86
2023-04-20T11:02:16.067Z,1000.82
2023-04-20T11:03:16.191Z,1000.84
2023-04-20T11:04:22.058Z,1000.77
2023-04-20T11:05:16.369Z,1000.74
2023-04-20T11:06:16.391Z,1000.77
2023-04-20T11:07:16.445Z,1000.71
2023-04-20T11:08:16.500Z,1000.65
2023-04-20T11:09:16.768Z,1000.67
2023-04-20T11:10:16.679Z,1000.63
2023-04-20T11:11:16.780Z,1000.69
2023-04-20T11:12:16.831Z,1000.57
2023-04-20T11:13:16.926Z,1000.67
2023-04-20T11:14:16.982Z,1000.68
2023-04-20T11:15:17.081Z,1000.65
2023-04-20T11:16:17.204Z,1000.65
2023-04-20T11:17:17.300Z,1000.67
2023-04-20T11:18:17.356Z,1000.67
2023-04-20T11:19:17.630Z,1000.69
2023-04-20T11:20:17.780Z,1000.68
2023-04-20T11:21:17.611Z,1000.70
2023-04-20T11:22:17.649Z,1000.73
2023-04-20T11:23:17.728Z,1000.68
2023-04-20T11:24:17.819Z,1000.62
2023-04-20T11:25:17.924Z,1000.66
2023-04-20T11:26:18.085Z,1000.64
2023-04-20T11:27:18.092Z,1000.61
2023-04-20T11:28:18.130Z,1000.63
2023-04-20T11:29:18.409Z,1000.58
2023-04-20T11:30:18.286Z,1000.59
2023-04-20T11:31:18.650Z,1000.59
2023-04-20T11:32:18.750Z,1000.69
2023-04-20T11:33:18.680Z,1000.59
2023-04-20T11:34:18.628Z,1000.64
2023-04-20T11:35:18.734Z,1000.64
2023-04-20T11:36:18.813Z,1000.61
2023-04-20T11:37:18.873Z,1000.58
2023-04-20T11:38:18.927Z,1000.59
2023-04-20T11:39:19.290Z,1000.54
2023-04-20T11:40:19.112Z,1000.59
2023-04-20T11:41:19.234Z,1000.60
2023-04-20T11:42:19.265Z,1000.55
2023-04-20T11:43:19.350Z,1000.55
2023-04-20T11:44:19.406Z,1000.60
2023-04-20T11:45:19.529Z,1000.55
2023-04-20T11:46:19.692Z,1000.56
2023-04-20T11:47:19.674Z,1000.57
2023-04-20T11:48:19.721Z,1000.62
2023-04-20T11:49:19.901Z,1000.59
2023-04-20T11:50:19.867Z,1000.59
2023-04-20T11:51:20.772Z,1000.56
2023-04-20T11:52:20.024Z,1000.67
2023-04-20T11:53:20.117Z,1000.57
2023-04-20T11:54:20.169Z,1000.60
2023-04-20T11:55:20.240Z,1000.68
2023-04-20T11:56:20.406Z,1000.56
2023-04-20T11:57:20.419Z,1000.57
2023-04-20T11:58:20.497Z,1000.59
2023-04-20T11:59:21.190Z,1000.55
2023-04-20T12:00:20.640Z,1000.57
2023-04-20T12:01:20.732Z,1000.59
2023-04-20T12:02:20.879Z,1000.59
2023-04-20T12:03:21.050Z,1000.53
2023-04-20T12:04:21.288Z,1000.51
2023-04-20T12:05:21.206Z,1000.52
2023-04-20T12:06:21.090Z,1000.54